Greenwich Township, New Jersey
Current Conditions -  °F | °C
As of 10:54 AM on Monday 22 Dec 2014 (Local Time) from KMIV Reporting Station
Overcast Overcast  
Wind Chill: 35°   Ceiling: 4500
Heat Index: 35°   Visibility: 8mi
Dew Point: 31°   Wind: 3mph
Humidity: 85%   Direction: 70°ENE
Pressure: 30.3"   Gusts: NA
Location:  39.386°N, 75.3403°W
Report Text: KMIV 221554Z AUTO 07003KT 8SM OVC045 02/M01 A3030 RMK AO2 SLP259 T00171006
Loading
Personal Weather Stations






























Interactive Weather Map New forecast layout! Learn more

10-Day Weather Forecast

Advertisements
Track Severe Weather on mobile